createdAt,value
2023-04-05T00:01:36.888Z,72.07
2023-04-05T00:04:04.897Z,72.10
2023-04-05T00:06:31.372Z,72.20
2023-04-05T00:09:03.026Z,72.32
2023-04-05T00:11:33.005Z,72.42
2023-04-05T00:14:00.413Z,72.52
2023-04-05T00:16:28.307Z,72.61
2023-04-05T00:18:56.403Z,72.76
2023-04-05T00:21:23.784Z,72.96
2023-04-05T00:23:53.105Z,73.17
2023-04-05T00:26:20.689Z,73.33
2023-04-05T00:28:48.946Z,73.56
2023-04-05T00:31:15.713Z,73.79
2023-04-05T00:33:42.798Z,73.90
2023-04-05T00:36:10.750Z,73.98
2023-04-05T00:38:38.128Z,74.03
2023-04-05T00:41:04.639Z,74.01
2023-04-05T00:43:31.456Z,74.07
2023-04-05T00:45:57.855Z,74.29
2023-04-05T00:48:25.365Z,74.36
2023-04-05T00:50:52.120Z,74.50
2023-04-05T00:53:20.070Z,74.64
2023-04-05T00:55:47.786Z,74.75
2023-04-05T00:58:18.549Z,74.87
2023-04-05T01:00:58.656Z,74.96
2023-04-05T01:03:28.697Z,75.06
2023-04-05T01:06:00.466Z,75.23
2023-04-05T01:08:45.798Z,75.14
2023-04-05T01:11:15.593Z,75.23
2023-04-05T01:13:45.024Z,75.28
2023-04-05T01:16:11.757Z,75.39
2023-04-05T01:18:38.481Z,75.48
2023-04-05T01:21:33.364Z,75.53
2023-04-05T01:24:12.181Z,75.56
2023-04-05T01:26:56.648Z,75.60
2023-04-05T01:29:31.436Z,75.68
2023-04-05T01:32:10.968Z,75.81
2023-04-05T01:34:49.004Z,75.89
2023-04-05T01:37:19.640Z,75.85
2023-04-05T01:39:48.295Z,75.81
2023-04-05T01:42:21.567Z,75.80
2023-04-05T01:44:48.051Z,75.74
2023-04-05T01:47:14.738Z,75.69
2023-04-05T01:49:41.164Z,75.64
2023-04-05T01:52:07.894Z,75.58
2023-04-05T01:54:34.738Z,75.55
2023-04-05T01:57:01.167Z,75.48
2023-04-05T01:59:27.681Z,75.37
2023-04-05T02:01:54.090Z,75.33
2023-04-05T02:04:20.973Z,75.32
2023-04-05T02:06:47.376Z,75.29
2023-04-05T02:09:13.758Z,75.29
2023-04-05T02:11:41.212Z,75.33
2023-04-05T02:14:09.056Z,75.34
2023-04-05T02:16:36.250Z,75.35
2023-04-05T02:19:02.930Z,75.41
2023-04-05T02:21:31.356Z,75.37
2023-04-05T02:23:57.789Z,75.34
2023-04-05T02:26:24.252Z,75.39
2023-04-05T02:28:50.682Z,75.44
2023-04-05T02:31:17.316Z,75.48
2023-04-05T02:33:43.848Z,75.59
2023-04-05T02:36:12.646Z,75.75
2023-04-05T02:38:39.070Z,75.96
2023-04-05T02:41:10.401Z,76.21
2023-04-05T02:43:38.762Z,76.39
2023-04-05T02:46:05.243Z,76.48
2023-04-05T02:48:32.457Z,76.56
2023-04-05T02:50:59.038Z,76.58
2023-04-05T02:53:25.404Z,76.59
2023-04-05T02:55:57.260Z,76.55
2023-04-05T02:58:24.223Z,76.44
2023-04-05T03:00:52.415Z,76.38
2023-04-05T03:03:23.885Z,76.44
2023-04-05T03:05:59.710Z,76.59
2023-04-05T03:08:28.092Z,76.72
2023-04-05T03:11:01.274Z,76.82
2023-04-05T03:13:28.175Z,76.88
2023-04-05T03:15:55.059Z,76.97
2023-04-05T03:18:24.985Z,77.11
2023-04-05T03:20:59.180Z,77.16
2023-04-05T03:23:28.934Z,77.21
2023-04-05T03:26:00.666Z,77.32
2023-04-05T03:28:33.695Z,77.51
2023-04-05T03:31:02.454Z,77.46
2023-04-05T03:33:29.363Z,77.78
2023-04-05T03:35:55.831Z,78.11
2023-04-05T03:38:22.649Z,78.16
2023-04-05T03:41:07.711Z,78.33
2023-04-05T03:43:35.221Z,78.47
2023-04-05T03:46:01.872Z,78.54
2023-04-05T03:48:29.034Z,78.49
2023-04-05T03:50:55.584Z,78.44
2023-04-05T03:53:22.836Z,78.45
2023-04-05T03:55:54.588Z,78.56
2023-04-05T03:58:27.678Z,78.55
2023-04-05T04:00:56.116Z,78.66
2023-04-05T04:03:25.347Z,78.63
2023-04-05T04:05:53.292Z,78.57
2023-04-05T04:08:20.600Z,78.57
2023-04-05T04:10:48.681Z,78.71
2023-04-05T04:13:23.815Z,78.80
2023-04-05T04:16:10.478Z,78.89
2023-04-05T04:18:57.172Z,78.94
2023-04-05T04:21:35.633Z,78.95
2023-04-05T04:24:32.060Z,78.98
2023-04-05T04:27:21.857Z,79.04
2023-04-05T04:30:04.230Z,79.07
2023-04-05T04:32:53.233Z,79.17
2023-04-05T04:35:34.270Z,78.93
2023-04-05T04:38:17.867Z,78.96
2023-04-05T04:40:53.003Z,78.87
2023-04-05T04:43:43.176Z,78.82
2023-04-05T04:46:18.391Z,78.86
2023-04-05T04:48:58.806Z,78.91
2023-04-05T04:51:36.925Z,78.87
2023-04-05T04:54:03.348Z,78.85
2023-04-05T04:56:29.830Z,78.80
2023-04-05T04:58:58.069Z,78.75
2023-04-05T05:01:25.774Z,78.61
2023-04-05T05:03:52.376Z,78.47
2023-04-05T05:06:29.199Z,78.19
2023-04-05T05:08:55.807Z,78.01
2023-04-05T05:11:22.262Z,77.66
2023-04-05T05:13:51.273Z,77.57
2023-04-05T05:16:22.844Z,77.70
2023-04-05T05:18:52.391Z,77.56
2023-04-05T05:21:20.363Z,77.44
2023-04-05T05:23:52.699Z,77.49
2023-04-05T05:26:19.047Z,77.50
2023-04-05T05:28:46.380Z,77.44
2023-04-05T05:31:13.540Z,77.32
2023-04-05T05:33:40.383Z,77.39
2023-04-05T05:36:07.457Z,77.34
2023-04-05T05:38:33.993Z,77.33
2023-04-05T05:41:00.379Z,77.34
2023-04-05T05:43:26.984Z,77.25
2023-04-05T05:45:53.604Z,77.18
2023-04-05T05:48:20.329Z,76.91
2023-04-05T05:50:48.529Z,76.76
2023-04-05T05:53:15.698Z,76.63
2023-04-05T05:55:42.249Z,76.70
2023-04-05T05:58:08.713Z,76.83
2023-04-05T06:00:35.763Z,76.97
2023-04-05T06:03:03.880Z,77.06
2023-04-05T06:05:30.336Z,77.03
2023-04-05T06:07:56.639Z,76.84
2023-04-05T06:10:23.987Z,76.40
2023-04-05T06:12:50.431Z,76.32
2023-04-05T06:15:16.785Z,76.30
2023-04-05T06:17:43.739Z,76.33
2023-04-05T06:20:13.375Z,76.33
2023-04-05T06:22:40.740Z,76.52
2023-04-05T06:25:08.338Z,76.36
2023-04-05T06:27:35.163Z,76.19
2023-04-05T06:30:02.377Z,75.98
2023-04-05T06:32:29.111Z,75.95
2023-04-05T06:34:55.524Z,76.00
2023-04-05T06:37:22.184Z,75.87
2023-04-05T06:39:48.693Z,75.78
2023-04-05T06:42:15.456Z,75.54
2023-04-05T06:44:44.189Z,75.50
2023-04-05T06:47:10.603Z,75.35
2023-04-05T06:49:37.032Z,75.37
2023-04-05T06:52:05.995Z,75.32
2023-04-05T06:54:33.408Z,75.37
2023-04-05T06:57:01.779Z,75.20
2023-04-05T06:59:29.414Z,74.99
2023-04-05T07:01:56.195Z,74.86
2023-04-05T07:04:22.890Z,74.89
2023-04-05T07:06:49.371Z,74.94
2023-04-05T07:09:16.274Z,74.88
2023-04-05T07:11:42.606Z,74.53
2023-04-05T07:14:09.079Z,73.86
2023-04-05T07:16:35.590Z,73.73
2023-04-05T07:19:02.079Z,73.78
2023-04-05T07:21:30.165Z,73.50
2023-04-05T07:24:00.127Z,73.49
2023-04-05T07:26:26.571Z,73.13
2023-04-05T07:28:53.051Z,72.94
2023-04-05T07:31:19.725Z,72.99
2023-04-05T07:33:46.090Z,73.08
2023-04-05T07:36:12.550Z,72.90
2023-04-05T07:38:39.232Z,72.63
2023-04-05T07:41:05.838Z,72.67
2023-04-05T07:43:32.281Z,72.55
2023-04-05T07:46:05.018Z,72.34
2023-04-05T07:48:31.633Z,72.07
2023-04-05T07:51:06.407Z,71.84
2023-04-05T07:53:32.803Z,71.75
2023-04-05T07:56:06.133Z,71.50
2023-04-05T07:58:33.485Z,71.16
2023-04-05T08:01:04.091Z,70.74
2023-04-05T08:03:31.564Z,70.96
2023-04-05T08:05:57.936Z,71.07
2023-04-05T08:08:24.982Z,70.82
2023-04-05T08:10:51.414Z,70.76
2023-04-05T08:13:17.762Z,70.57
2023-04-05T08:15:44.123Z,70.48
2023-04-05T08:18:10.574Z,69.70
2023-04-05T08:20:38.854Z,69.17
2023-04-05T08:23:05.520Z,68.55
2023-04-05T08:25:31.876Z,68.48
2023-04-05T08:27:58.426Z,67.61
2023-04-05T08:30:24.773Z,66.84
2023-04-05T08:32:51.267Z,66.76
2023-04-05T08:35:17.680Z,66.60
2023-04-05T08:37:44.128Z,65.87
2023-04-05T08:40:11.447Z,65.77
2023-04-05T08:43:09.862Z,65.23
2023-04-05T08:45:47.853Z,65.30
2023-04-05T08:48:15.031Z,64.18
2023-04-05T08:50:41.671Z,63.63
2023-04-05T08:53:10.987Z,63.66
2023-04-05T08:55:38.876Z,63.37
2023-04-05T08:58:12.091Z,63.15
2023-04-05T09:00:40.685Z,62.77
2023-04-05T09:03:12.337Z,62.57
2023-04-05T09:05:40.408Z,62.88
2023-04-05T09:08:06.932Z,62.07
2023-04-05T09:10:33.918Z,61.73
2023-04-05T09:13:02.263Z,62.21
2023-04-05T09:15:29.852Z,61.67
2023-04-05T09:17:56.955Z,61.71
2023-04-05T09:20:23.724Z,61.47
2023-04-05T09:22:50.445Z,61.16
2023-04-05T09:25:31.891Z,61.34
2023-04-05T09:27:59.387Z,60.84
2023-04-05T09:30:27.361Z,59.62
2023-04-05T09:32:55.525Z,59.49
2023-04-05T09:35:23.712Z,60.42
2023-04-05T09:37:55.475Z,60.29
2023-04-05T09:40:24.077Z,60.09
2023-04-05T09:42:52.465Z,59.17
2023-04-05T09:45:18.984Z,59.68
2023-04-05T09:47:56.914Z,60.16
2023-04-05T09:50:23.564Z,59.96
2023-04-05T09:52:52.035Z,60.17
2023-04-05T09:55:28.448Z,59.67
2023-04-05T09:57:54.899Z,59.40
2023-04-05T10:00:22.168Z,59.25
2023-04-05T10:02:53.499Z,58.99
2023-04-05T10:05:23.757Z,59.41
2023-04-05T10:07:51.550Z,59.24
2023-04-05T10:10:18.302Z,59.36
2023-04-05T10:12:46.391Z,59.26
2023-04-05T10:15:13.767Z,59.23
2023-04-05T10:18:10.113Z,59.15
2023-04-05T10:20:41.017Z,58.71
2023-04-05T10:23:12.805Z,58.52
2023-04-05T10:25:52.944Z,58.50
2023-04-05T10:28:33.304Z,58.72
2023-04-05T10:31:40.366Z,58.65
2023-04-05T10:34:11.882Z,58.57
2023-04-05T10:36:58.763Z,58.70
2023-04-05T10:39:33.018Z,58.81
2023-04-05T10:42:06.477Z,58.89
2023-04-05T10:44:36.750Z,59.12
2023-04-05T10:47:04.737Z,59.19
2023-04-05T10:49:37.201Z,59.21
2023-04-05T10:52:05.332Z,59.24
2023-04-05T10:54:36.019Z,59.10
2023-04-05T10:57:09.453Z,59.04
2023-04-05T10:59:42.333Z,58.61
2023-04-05T11:02:09.781Z,58.15
2023-04-05T11:04:38.757Z,57.97
2023-04-05T11:07:17.429Z,57.02
2023-04-05T11:09:57.022Z,57.53
2023-04-05T11:12:45.739Z,57.92
2023-04-05T11:15:27.172Z,58.06
2023-04-05T11:18:15.506Z,58.01
2023-04-05T11:20:44.935Z,57.87
2023-04-05T11:23:16.225Z,57.41
2023-04-05T11:25:47.561Z,57.24
2023-04-05T11:28:36.638Z,57.02
2023-04-05T11:31:17.288Z,56.96
2023-04-05T11:33:55.323Z,57.08
2023-04-05T11:36:51.744Z,56.77
2023-04-05T11:39:18.283Z,56.65
2023-04-05T11:41:54.804Z,56.16
2023-04-05T11:44:23.363Z,56.30
2023-04-05T11:46:52.578Z,56.33
2023-04-05T11:49:23.859Z,55.81
2023-04-05T11:51:52.078Z,55.70
2023-04-05T11:54:29.532Z,55.45
2023-04-05T11:56:56.175Z,55.38
2023-04-05T11:59:35.933Z,54.93
2023-04-05T12:02:07.009Z,53.25
2023-04-05T12:04:37.370Z,52.71
2023-04-05T12:07:16.739Z,51.75
2023-04-05T12:10:01.944Z,53.24
2023-04-05T12:12:34.224Z,52.82
2023-04-05T12:15:02.297Z,53.35
2023-04-05T12:17:38.671Z,51.96
2023-04-05T12:20:06.421Z,52.82
2023-04-05T12:22:33.590Z,52.37
2023-04-05T12:25:00.105Z,52.03
2023-04-05T12:27:26.784Z,50.60
2023-04-05T12:30:16.034Z,50.83
2023-04-05T12:32:54.196Z,50.57
2023-04-05T12:35:34.655Z,50.81
2023-04-05T12:38:02.864Z,50.08
2023-04-05T12:40:30.405Z,49.38
2023-04-05T12:43:05.090Z,48.96
2023-04-05T12:45:39.005Z,48.61
2023-04-05T12:48:11.325Z,48.96
2023-04-05T12:50:42.610Z,48.95
2023-04-05T12:53:27.883Z,49.15
2023-04-05T12:55:55.850Z,48.79
2023-04-05T12:58:31.993Z,48.08
2023-04-05T13:00:58.456Z,48.79
2023-04-05T13:03:26.276Z,49.04
2023-04-05T13:05:52.988Z,49.27
2023-04-05T13:08:19.620Z,49.37
2023-04-05T13:10:47.428Z,49.41
2023-04-05T13:13:14.755Z,49.27
2023-04-05T13:15:41.630Z,48.46
2023-04-05T13:18:09.439Z,48.51
2023-04-05T13:20:36.362Z,48.75
2023-04-05T13:23:02.748Z,48.20
2023-04-05T13:25:29.131Z,48.02
2023-04-05T13:27:55.461Z,47.83
2023-04-05T13:30:22.028Z,47.25
2023-04-05T13:32:48.489Z,46.70
2023-04-05T13:35:15.486Z,46.14
2023-04-05T13:37:41.845Z,46.31
2023-04-05T13:40:08.803Z,46.52
2023-04-05T13:42:35.401Z,46.54
2023-04-05T13:45:02.516Z,46.37
2023-04-05T13:47:28.977Z,46.09
2023-04-05T13:49:55.417Z,45.31
2023-04-05T13:52:22.206Z,44.72
2023-04-05T13:54:48.553Z,43.85
2023-04-05T13:57:28.690Z,44.82
2023-04-05T13:59:55.418Z,44.71
2023-04-05T14:02:25.074Z,43.71
2023-04-05T14:04:54.805Z,43.56
2023-04-05T14:07:22.220Z,44.24
2023-04-05T14:09:48.630Z,43.68
2023-04-05T14:12:15.277Z,44.32
2023-04-05T14:14:41.785Z,43.55
2023-04-05T14:17:08.523Z,43.21
2023-04-05T14:19:35.150Z,43.18
2023-04-05T14:22:01.515Z,43.16
2023-04-05T14:24:28.076Z,43.91
2023-04-05T14:26:57.392Z,44.07
2023-04-05T14:29:25.410Z,44.63
2023-04-05T14:31:54.084Z,44.93
2023-04-05T14:34:20.586Z,44.89
2023-04-05T14:36:47.263Z,44.92
2023-04-05T14:39:13.703Z,44.65
2023-04-05T14:41:40.340Z,44.91
2023-04-05T14:44:06.835Z,45.26
2023-04-05T14:46:33.231Z,45.67
2023-04-05T14:48:59.712Z,45.55
2023-04-05T14:51:26.669Z,44.55
2023-04-05T14:53:53.197Z,44.59
2023-04-05T14:56:19.622Z,44.70
2023-04-05T14:58:46.091Z,44.68
2023-04-05T15:01:12.710Z,44.87
2023-04-05T15:03:39.290Z,44.97
2023-04-05T15:06:06.140Z,45.12
2023-04-05T15:08:32.794Z,45.09
2023-04-05T15:10:59.689Z,45.54
2023-04-05T15:13:26.360Z,45.68
2023-04-05T15:15:52.910Z,46.12
2023-04-05T15:18:19.611Z,46.40
2023-04-05T15:20:46.129Z,46.55
2023-04-05T15:23:12.659Z,46.31
2023-04-05T15:25:39.089Z,46.79
2023-04-05T15:28:07.037Z,46.96
2023-04-05T15:30:35.104Z,47.09
2023-04-05T15:33:01.585Z,47.03
2023-04-05T15:35:28.671Z,46.73
2023-04-05T15:37:55.110Z,47.39
2023-04-05T15:40:21.867Z,47.22
2023-04-05T15:42:48.233Z,47.43
2023-04-05T15:45:14.851Z,47.78
2023-04-05T15:47:41.343Z,47.93
2023-04-05T15:50:08.065Z,48.25
2023-04-05T15:52:35.216Z,48.58
2023-04-05T15:55:03.060Z,48.85
2023-04-05T15:57:29.653Z,49.18
2023-04-05T15:59:56.066Z,49.07
2023-04-05T16:02:22.852Z,49.22
2023-04-05T16:04:49.468Z,49.43
2023-04-05T16:07:16.103Z,49.74
2023-04-05T16:09:44.096Z,49.99
2023-04-05T16:12:10.647Z,50.12
2023-04-05T16:14:37.670Z,49.84
2023-04-05T16:17:04.246Z,50.51
2023-04-05T16:19:30.978Z,50.17
2023-04-05T16:21:59.480Z,50.25
2023-04-05T16:24:27.187Z,50.29
2023-04-05T16:26:53.739Z,50.38
2023-04-05T16:29:20.211Z,50.47
2023-04-05T16:31:46.905Z,50.75
2023-04-05T16:34:13.574Z,51.03
2023-04-05T16:36:41.034Z,51.52
2023-04-05T16:39:08.037Z,51.46
2023-04-05T16:41:35.580Z,51.52
2023-04-05T16:44:02.792Z,51.47
2023-04-05T16:46:31.443Z,51.90
2023-04-05T16:48:59.054Z,52.06
2023-04-05T16:51:25.900Z,52.37
2023-04-05T16:53:53.226Z,52.62
2023-04-05T16:56:20.214Z,52.77
2023-04-05T16:58:46.795Z,52.70
2023-04-05T17:01:13.562Z,52.80
2023-04-05T17:03:41.398Z,52.66
2023-04-05T17:06:10.383Z,52.42
2023-04-05T17:08:37.116Z,52.94
2023-04-05T17:11:03.773Z,53.05
2023-04-05T17:13:30.484Z,53.17
2023-04-05T17:15:57.276Z,53.38
2023-04-05T17:18:24.368Z,53.54
2023-04-05T17:20:50.979Z,53.71
2023-04-05T17:23:17.453Z,53.86
2023-04-05T17:25:43.852Z,53.94
2023-04-05T17:28:12.190Z,53.83
2023-04-05T17:30:38.578Z,54.06
2023-04-05T17:33:05.641Z,54.42
2023-04-05T17:35:32.326Z,54.66
2023-04-05T17:37:59.296Z,54.99
2023-04-05T17:40:26.596Z,55.20
2023-04-05T17:42:52.956Z,55.40
2023-04-05T17:45:19.458Z,55.63
2023-04-05T17:47:46.246Z,55.55
2023-04-05T17:50:12.953Z,55.40
2023-04-05T17:52:39.917Z,55.65
2023-04-05T17:55:06.584Z,55.85
2023-04-05T17:57:32.952Z,55.92
2023-04-05T17:59:59.751Z,55.77
2023-04-05T18:02:27.318Z,55.87
2023-04-05T18:04:54.160Z,56.50
2023-04-05T18:07:20.659Z,56.89
2023-04-05T18:09:47.199Z,57.10
2023-04-05T18:12:14.055Z,57.12
2023-04-05T18:14:41.012Z,57.44
2023-04-05T18:17:07.821Z,57.90
2023-04-05T18:19:35.246Z,57.92
2023-04-05T18:22:02.132Z,58.01
2023-04-05T18:24:28.765Z,58.50
2023-04-05T18:26:55.205Z,58.58
2023-04-05T18:29:27.475Z,58.58
2023-04-05T18:31:55.378Z,59.20
2023-04-05T18:34:22.794Z,59.11
2023-04-05T18:36:50.343Z,59.49
2023-04-05T18:39:18.928Z,59.48
2023-04-05T18:41:45.437Z,59.38
2023-04-05T18:44:12.404Z,59.85
2023-04-05T18:46:39.217Z,60.08
2023-04-05T18:49:05.934Z,60.32
2023-04-05T18:51:33.041Z,60.51
2023-04-05T18:53:59.770Z,60.81
2023-04-05T18:56:27.266Z,61.09
2023-04-05T18:58:53.744Z,61.36
2023-04-05T19:01:21.707Z,61.36
2023-04-05T19:03:49.848Z,61.48
2023-04-05T19:06:17.445Z,61.40
2023-04-05T19:08:47.245Z,61.18
2023-04-05T19:11:14.287Z,61.04
2023-04-05T19:13:41.500Z,61.15
2023-04-05T19:16:08.065Z,61.03
2023-04-05T19:18:34.618Z,60.69
2023-04-05T19:21:01.166Z,60.58
2023-04-05T19:23:28.019Z,60.75
2023-04-05T19:25:55.855Z,60.75
2023-04-05T19:28:23.689Z,61.05
2023-04-05T19:30:50.451Z,61.25
2023-04-05T19:33:19.094Z,61.13
2023-04-05T19:35:47.254Z,61.42
2023-04-05T19:38:13.743Z,61.51
2023-04-05T19:40:41.527Z,61.44
2023-04-05T19:43:09.169Z,61.73
2023-04-05T19:45:36.438Z,61.53
2023-04-05T19:48:26.979Z,61.78
2023-04-05T19:50:56.690Z,61.59
2023-04-05T19:53:31.921Z,61.39
2023-04-05T19:55:58.301Z,61.06
2023-04-05T19:58:28.500Z,61.12
2023-04-05T20:00:55.073Z,60.95
2023-04-05T20:03:31.328Z,60.97
2023-04-05T20:06:03.363Z,60.99
2023-04-05T20:08:33.007Z,60.91
2023-04-05T20:10:59.519Z,61.04
2023-04-05T20:13:26.284Z,61.17
2023-04-05T20:15:53.390Z,61.26
2023-04-05T20:18:25.236Z,60.91
2023-04-05T20:20:53.231Z,60.76
2023-04-05T20:23:21.707Z,60.61
2023-04-05T20:25:50.111Z,60.48
2023-04-05T20:28:38.400Z,60.38
2023-04-05T20:31:04.719Z,60.28
2023-04-05T20:33:53.437Z,60.22
2023-04-05T20:36:28.842Z,60.21
2023-04-05T20:38:55.561Z,60.23
2023-04-05T20:41:22.097Z,60.12
2023-04-05T20:43:48.516Z,59.94
2023-04-05T20:46:16.068Z,59.93
2023-04-05T20:48:43.024Z,59.91
2023-04-05T20:51:14.007Z,59.84
2023-04-05T20:53:40.989Z,59.69
2023-04-05T20:56:09.049Z,59.79
2023-04-05T20:58:36.894Z,59.77
2023-04-05T21:01:04.045Z,59.85
2023-04-05T21:03:32.425Z,59.66
2023-04-05T21:06:00.489Z,59.73
2023-04-05T21:08:28.652Z,59.58
2023-04-05T21:10:56.372Z,59.35
2023-04-05T21:13:24.809Z,59.39
2023-04-05T21:15:53.233Z,59.35
2023-04-05T21:18:22.586Z,59.53
2023-04-05T21:20:50.436Z,59.68
2023-04-05T21:23:21.781Z,59.67
2023-04-05T21:25:49.181Z,59.66
2023-04-05T21:28:16.179Z,59.56
2023-04-05T21:30:43.161Z,59.46
2023-04-05T21:33:10.578Z,59.48
2023-04-05T21:35:37.459Z,59.52
2023-04-05T21:38:04.272Z,59.41
2023-04-05T21:40:31.219Z,59.20
2023-04-05T21:42:57.793Z,59.00
2023-04-05T21:45:24.714Z,59.21
2023-04-05T21:47:51.908Z,58.94
2023-04-05T21:50:18.864Z,59.01
2023-04-05T21:52:45.683Z,59.31
2023-04-05T21:55:12.236Z,59.21
2023-04-05T21:57:39.083Z,59.17
2023-04-05T22:00:10.395Z,59.16
2023-04-05T22:02:39.578Z,59.37
2023-04-05T22:05:07.299Z,59.47
2023-04-05T22:07:34.965Z,59.61
2023-04-05T22:10:02.201Z,59.49
2023-04-05T22:12:28.992Z,59.57
2023-04-05T22:14:55.853Z,59.56
2023-04-05T22:17:22.369Z,59.83
2023-04-05T22:19:48.827Z,59.83
2023-04-05T22:22:16.241Z,59.80
2023-04-05T22:24:43.029Z,60.06
2023-04-05T22:27:10.386Z,60.19
2023-04-05T22:29:37.708Z,60.29
2023-04-05T22:32:04.348Z,60.24
2023-04-05T22:34:30.766Z,60.32
2023-04-05T22:36:57.321Z,60.80
2023-04-05T22:39:23.858Z,60.86
2023-04-05T22:41:50.260Z,60.69
2023-04-05T22:44:16.796Z,61.07
2023-04-05T22:46:43.217Z,61.66
2023-04-05T22:49:09.957Z,62.11
2023-04-05T22:51:36.657Z,61.79
2023-04-05T22:54:03.198Z,62.06
2023-04-05T22:56:30.997Z,63.02
2023-04-05T22:58:57.434Z,63.17
2023-04-05T23:01:23.876Z,63.08
2023-04-05T23:03:50.376Z,62.47
2023-04-05T23:06:16.962Z,62.55
2023-04-05T23:08:43.345Z,62.59
2023-04-05T23:11:09.987Z,63.07
2023-04-05T23:13:36.349Z,63.40
2023-04-05T23:16:03.485Z,63.53
2023-04-05T23:18:30.439Z,63.66
2023-04-05T23:20:56.888Z,64.21
2023-04-05T23:23:23.360Z,64.33
2023-04-05T23:25:50.434Z,64.11
2023-04-05T23:28:16.932Z,63.95
2023-04-05T23:30:43.425Z,64.01
2023-04-05T23:33:13.056Z,64.43
2023-04-05T23:35:40.580Z,64.60
2023-04-05T23:38:07.171Z,64.39
2023-04-05T23:40:33.863Z,64.55
2023-04-05T23:43:00.708Z,64.90
2023-04-05T23:45:27.632Z,64.78
2023-04-05T23:47:55.036Z,64.98
2023-04-05T23:50:21.830Z,64.74
2023-04-05T23:52:48.616Z,64.58
2023-04-05T23:55:15.605Z,64.26
2023-04-05T23:57:42.028Z,65.12
